createdAt,value
2017-03-02T00:00:17.824Z,0
2017-03-02T00:01:28.163Z,0
2017-03-02T00:02:38.439Z,0
2017-03-02T00:03:48.770Z,0
2017-03-02T00:04:59.119Z,0
2017-03-02T00:06:09.458Z,0
2017-03-02T00:07:19.782Z,0
2017-03-02T00:08:30.386Z,0
2017-03-02T00:09:40.320Z,0
2017-03-02T00:10:50.261Z,0
2017-03-02T00:12:01.001Z,0
2017-03-02T00:13:10.975Z,0
2017-03-02T00:14:22.008Z,0
2017-03-02T00:15:32.772Z,0
2017-03-02T00:16:43.499Z,0
2017-03-02T00:17:53.441Z,0
2017-03-02T00:19:03.403Z,0
2017-03-02T00:20:13.979Z,0
2017-03-02T00:21:23.918Z,0
2017-03-02T00:22:34.240Z,0
2017-03-02T00:23:44.599Z,0
2017-03-02T00:24:54.577Z,0
2017-03-02T00:26:05.183Z,0
2017-03-02T00:27:15.748Z,0
2017-03-02T00:28:26.481Z,0
2017-03-02T00:29:36.410Z,0
2017-03-02T00:30:47.143Z,0
2017-03-02T00:31:56.967Z,0
2017-03-02T00:33:07.300Z,0
2017-03-02T00:34:17.259Z,0
2017-03-02T00:35:27.988Z,0
2017-03-02T00:36:37.570Z,0
2017-03-02T00:37:47.793Z,0
2017-03-02T00:38:58.138Z,0
2017-03-02T00:40:08.884Z,0
2017-03-02T00:41:19.225Z,0
2017-03-02T00:42:29.952Z,0
2017-03-02T00:43:39.748Z,0
2017-03-02T00:44:50.485Z,0
2017-03-02T00:46:00.826Z,0
2017-03-02T00:47:11.185Z,0
2017-03-02T00:48:21.513Z,0
2017-03-02T00:49:31.330Z,0
2017-03-02T00:50:41.283Z,0
2017-03-02T00:51:51.232Z,0
2017-03-02T00:53:01.961Z,0
2017-03-02T00:54:12.327Z,0
2017-03-02T00:55:22.515Z,0
2017-03-02T00:56:32.867Z,0
2017-03-02T00:57:43.197Z,0
2017-03-02T00:58:53.164Z,0
2017-03-02T01:00:03.923Z,0
2017-03-02T01:01:14.941Z,0
2017-03-02T01:02:25.681Z,0
2017-03-02T01:03:36.045Z,0
2017-03-02T01:04:45.993Z,0
2017-03-02T01:05:56.713Z,0
2017-03-02T01:07:06.911Z,0
2017-03-02T01:08:17.230Z,0
2017-03-02T01:09:27.616Z,0
2017-03-02T01:10:38.007Z,0
2017-03-02T01:11:48.364Z,0
2017-03-02T01:12:58.973Z,0
2017-03-02T01:14:09.357Z,0
2017-03-02T01:15:19.715Z,0
2017-03-02T01:16:29.670Z,0
2017-03-02T01:17:39.243Z,0
2017-03-02T01:18:50.227Z,0
2017-03-02T01:20:00.976Z,0
2017-03-02T01:21:11.353Z,0
2017-03-02T01:22:22.089Z,0
2017-03-02T01:23:32.468Z,0
2017-03-02T01:24:42.670Z,0
2017-03-02T01:25:53.012Z,0
2017-03-02T01:27:02.969Z,0
2017-03-02T01:28:13.299Z,0
2017-03-02T01:29:24.059Z,0
2017-03-02T01:30:33.905Z,0
2017-03-02T01:31:44.231Z,0
2017-03-02T01:32:54.211Z,0
2017-03-02T01:34:04.551Z,0
2017-03-02T01:35:14.878Z,0
2017-03-02T01:36:25.502Z,0
2017-03-02T01:37:36.267Z,0
2017-03-02T01:38:46.606Z,0
2017-03-02T01:39:56.557Z,0
2017-03-02T01:41:06.120Z,0
2017-03-02T01:42:16.309Z,0
2017-03-02T01:43:27.042Z,0
2017-03-02T01:44:37.390Z,0
2017-03-02T01:45:47.722Z,0
2017-03-02T01:46:57.659Z,0
2017-03-02T01:48:07.898Z,0
2017-03-02T01:49:17.509Z,0
2017-03-02T01:50:28.225Z,0
2017-03-02T01:51:38.962Z,0
2017-03-02T01:52:49.705Z,0
2017-03-02T01:53:59.908Z,0
2017-03-02T01:55:10.279Z,0
2017-03-02T01:56:20.638Z,0
2017-03-02T01:57:29.797Z,0
2017-03-02T01:58:40.158Z,0
2017-03-02T01:59:49.950Z,0
2017-03-02T02:01:00.680Z,0
2017-03-02T02:02:10.617Z,0
2017-03-02T02:03:20.575Z,0
2017-03-02T02:04:30.517Z,0
2017-03-02T02:05:41.548Z,0
2017-03-02T02:06:51.524Z,0
2017-03-02T02:08:01.080Z,0
2017-03-02T02:09:11.019Z,0
2017-03-02T02:10:20.553Z,0
2017-03-02T02:11:31.141Z,0
2017-03-02T02:12:41.504Z,0
2017-03-02T02:13:51.439Z,0
2017-03-02T02:15:01.375Z,0
2017-03-02T02:16:11.729Z,0
2017-03-02T02:17:22.332Z,0
2017-03-02T02:18:32.286Z,0
2017-03-02T02:19:42.246Z,0
2017-03-02T02:20:52.610Z,0
2017-03-02T02:22:02.537Z,0
2017-03-02T02:23:13.211Z,0
2017-03-02T02:24:23.576Z,0
2017-03-02T02:25:33.942Z,0
2017-03-02T02:26:43.894Z,0
2017-03-02T02:27:54.231Z,0
2017-03-02T02:29:04.851Z,0
2017-03-02T02:30:15.199Z,0
2017-03-02T02:31:25.570Z,0
2017-03-02T02:32:35.143Z,0
2017-03-02T02:33:45.497Z,0
2017-03-02T02:34:55.283Z,0
2017-03-02T02:36:05.634Z,0
2017-03-02T02:37:15.576Z,0
2017-03-02T02:38:25.934Z,0
2017-03-02T02:39:35.522Z,0
2017-03-02T02:40:46.176Z,0
2017-03-02T02:41:56.928Z,0
2017-03-02T02:43:07.274Z,0
2017-03-02T02:44:17.602Z,0
2017-03-02T02:45:27.146Z,0
2017-03-02T02:46:37.817Z,0
2017-03-02T02:47:48.172Z,0
2017-03-02T02:48:58.505Z,0
2017-03-02T02:50:08.435Z,0
2017-03-02T02:51:19.158Z,0
2017-03-02T02:52:29.799Z,0
2017-03-02T02:53:40.154Z,0
2017-03-02T02:54:50.499Z,0
2017-03-02T02:56:00.822Z,0
2017-03-02T02:57:11.565Z,0
2017-03-02T02:58:21.373Z,0
2017-03-02T02:59:31.334Z,0
2017-03-02T03:00:40.890Z,0
2017-03-02T03:01:50.854Z,0
2017-03-02T03:03:00.810Z,0
2017-03-02T03:04:11.502Z,0
2017-03-02T03:05:21.831Z,0
2017-03-02T03:06:31.787Z,0
2017-03-02T03:07:41.739Z,0
2017-03-02T03:08:52.064Z,0
2017-03-02T03:10:03.098Z,0
2017-03-02T03:11:13.466Z,0
2017-03-02T03:12:23.815Z,0
2017-03-02T03:13:33.789Z,0
2017-03-02T03:14:44.150Z,0
2017-03-02T03:15:54.384Z,0
2017-03-02T03:17:04.787Z,0
2017-03-02T03:18:14.733Z,0
2017-03-02T03:19:24.690Z,0
2017-03-02T03:20:35.043Z,0
2017-03-02T03:21:44.463Z,0
2017-03-02T03:22:55.224Z,0
2017-03-02T03:24:05.162Z,0
2017-03-02T03:25:15.113Z,0
2017-03-02T03:26:25.457Z,0
2017-03-02T03:27:35.649Z,0
2017-03-02T03:28:45.205Z,0
2017-03-02T03:29:55.546Z,0
2017-03-02T03:31:05.099Z,0
2017-03-02T03:32:14.657Z,0
2017-03-02T03:33:24.893Z,0
2017-03-02T03:34:35.629Z,0
2017-03-02T03:35:45.173Z,0
2017-03-02T03:36:54.752Z,0
2017-03-02T03:38:05.096Z,0
2017-03-02T03:39:15.332Z,0
2017-03-02T03:40:25.653Z,0
2017-03-02T03:41:36.411Z,0
2017-03-02T03:42:46.359Z,0
2017-03-02T03:43:56.698Z,0
2017-03-02T03:45:07.683Z,0
2017-03-02T03:46:18.023Z,0
2017-03-02T03:47:28.385Z,0
2017-03-02T03:48:38.330Z,0
2017-03-02T03:49:48.689Z,0
2017-03-02T03:50:58.535Z,0
2017-03-02T03:52:08.494Z,0
2017-03-02T03:53:18.827Z,0
2017-03-02T03:54:28.407Z,0
2017-03-02T03:55:38.359Z,0
2017-03-02T03:56:48.609Z,0
2017-03-02T03:57:58.541Z,0
2017-03-02T03:59:09.293Z,0
2017-03-02T04:00:19.233Z,0
2017-03-02T04:01:29.588Z,0
2017-03-02T04:02:39.834Z,0
2017-03-02T04:03:50.193Z,0
2017-03-02T04:04:59.748Z,0
2017-03-02T04:06:09.692Z,0
2017-03-02T04:07:19.632Z,0
2017-03-02T04:08:30.256Z,0
2017-03-02T04:09:41.008Z,0
2017-03-02T04:10:51.355Z,0
2017-03-02T04:12:01.319Z,0
2017-03-02T04:13:11.658Z,0
2017-03-02T04:14:22.250Z,0
2017-03-02T04:15:32.986Z,0
2017-03-02T04:16:42.541Z,0
2017-03-02T04:17:52.887Z,0
2017-03-02T04:19:03.641Z,0
2017-03-02T04:20:13.921Z,0
2017-03-02T04:21:23.464Z,0
2017-03-02T04:22:33.819Z,0
2017-03-02T04:23:44.572Z,0
2017-03-02T04:24:54.552Z,0
2017-03-02T04:26:05.528Z,0
2017-03-02T04:27:16.255Z,0
2017-03-02T04:28:25.421Z,0
2017-03-02T04:29:36.153Z,0
2017-03-02T04:30:46.099Z,0
2017-03-02T04:31:56.294Z,0
2017-03-02T04:33:05.852Z,0
2017-03-02T04:34:15.811Z,0
2017-03-02T04:35:25.362Z,0
2017-03-02T04:36:36.088Z,0
2017-03-02T04:37:46.733Z,0
2017-03-02T04:38:56.265Z,0
2017-03-02T04:40:05.820Z,0
2017-03-02T04:41:16.164Z,0
2017-03-02T04:42:26.505Z,0
2017-03-02T04:43:37.162Z,0
2017-03-02T04:44:47.529Z,0
2017-03-02T04:45:57.846Z,0
2017-03-02T04:47:08.579Z,0
2017-03-02T04:48:18.524Z,0
2017-03-02T04:49:28.767Z,0
2017-03-02T04:50:39.490Z,0
2017-03-02T04:51:50.245Z,0
2017-03-02T04:53:00.220Z,0
2017-03-02T04:54:10.162Z,0
2017-03-02T04:55:20.755Z,0
2017-03-02T04:56:31.525Z,0
2017-03-02T04:57:41.885Z,0
2017-03-02T04:58:52.618Z,0
2017-03-02T05:00:02.974Z,0
2017-03-02T05:01:13.614Z,0
2017-03-02T05:02:23.971Z,0
2017-03-02T05:03:34.329Z,0
2017-03-02T05:04:43.478Z,0
2017-03-02T05:05:53.820Z,0
2017-03-02T05:07:03.222Z,0
2017-03-02T05:08:13.971Z,0
2017-03-02T05:09:24.698Z,0
2017-03-02T05:10:35.446Z,0
2017-03-02T05:11:45.839Z,0
2017-03-02T05:12:56.024Z,0
2017-03-02T05:14:05.981Z,0
2017-03-02T05:15:16.713Z,0
2017-03-02T05:16:27.055Z,0
2017-03-02T05:17:37.631Z,0
2017-03-02T05:18:47.097Z,0
2017-03-02T05:19:56.683Z,0
2017-03-02T05:21:06.999Z,0
2017-03-02T05:22:16.952Z,0
2017-03-02T05:23:26.907Z,0
2017-03-02T05:24:37.475Z,0
2017-03-02T05:25:47.033Z,0
2017-03-02T05:26:56.627Z,0
2017-03-02T05:28:06.975Z,0
2017-03-02T05:29:16.934Z,0
2017-03-02T05:30:27.545Z,0
2017-03-02T05:31:37.883Z,0
2017-03-02T05:32:47.828Z,4
2017-03-02T05:33:58.162Z,4
2017-03-02T05:35:08.505Z,4
2017-03-02T05:36:18.729Z,0
2017-03-02T05:37:28.687Z,4
2017-03-02T05:38:39.033Z,4
2017-03-02T05:39:48.969Z,4
2017-03-02T05:40:59.321Z,8
2017-03-02T05:42:10.400Z,8
2017-03-02T05:43:20.374Z,8
2017-03-02T05:44:29.913Z,16
2017-03-02T05:45:39.874Z,20
2017-03-02T05:46:49.838Z,24
2017-03-02T05:48:00.816Z,32
2017-03-02T05:49:10.384Z,32
2017-03-02T05:50:21.112Z,32
2017-03-02T05:51:31.849Z,44
2017-03-02T05:52:42.607Z,52
2017-03-02T05:53:53.200Z,48
2017-03-02T05:55:02.765Z,44
2017-03-02T05:56:13.519Z,44
2017-03-02T05:57:24.246Z,64
2017-03-02T05:58:33.785Z,64
2017-03-02T05:59:44.377Z,72
2017-03-02T06:00:54.314Z,84
2017-03-02T06:02:04.263Z,108
2017-03-02T06:03:15.017Z,120
2017-03-02T06:04:25.371Z,108
2017-03-02T06:05:35.568Z,104
2017-03-02T06:06:45.507Z,108
2017-03-02T06:07:56.023Z,100
2017-03-02T06:09:06.355Z,88
2017-03-02T06:10:17.088Z,80
2017-03-02T06:11:27.737Z,88
2017-03-02T06:12:38.067Z,80
2017-03-02T06:13:48.445Z,84
2017-03-02T06:14:59.196Z,80
2017-03-02T06:16:09.161Z,76
2017-03-02T06:17:18.169Z,68
2017-03-02T06:18:28.938Z,76
2017-03-02T06:19:38.887Z,76
2017-03-02T06:20:48.827Z,80
2017-03-02T06:21:59.596Z,76
2017-03-02T06:23:10.192Z,80
2017-03-02T06:24:20.966Z,96
2017-03-02T06:25:31.338Z,116
2017-03-02T06:26:41.696Z,160
2017-03-02T06:27:52.033Z,204
2017-03-02T06:29:02.303Z,248
2017-03-02T06:30:13.081Z,272
2017-03-02T06:31:23.048Z,228
2017-03-02T06:32:32.615Z,232
2017-03-02T06:33:43.373Z,284
2017-03-02T06:34:54.440Z,260
2017-03-02T06:36:05.186Z,312
2017-03-02T06:37:15.942Z,388
2017-03-02T06:38:26.303Z,384
2017-03-02T06:39:37.057Z,404
2017-03-02T06:40:48.099Z,500
2017-03-02T06:41:58.064Z,580
2017-03-02T06:43:08.447Z,588
2017-03-02T06:44:18.414Z,652
2017-03-02T06:45:28.769Z,640
2017-03-02T06:46:39.824Z,644
2017-03-02T06:47:49.760Z,700
2017-03-02T06:48:59.309Z,776
2017-03-02T06:50:09.292Z,720
2017-03-02T06:51:19.657Z,640
2017-03-02T06:52:30.284Z,596
2017-03-02T06:53:41.021Z,652
2017-03-02T06:54:51.773Z,1056
2017-03-02T06:56:02.124Z,1020
2017-03-02T06:57:12.073Z,788
2017-03-02T06:58:23.055Z,920
2017-03-02T06:59:33.391Z,932
2017-03-02T07:00:43.775Z,964
2017-03-02T07:01:54.150Z,1244
2017-03-02T07:03:04.509Z,1528
2017-03-02T07:04:15.134Z,1908
2017-03-02T07:05:25.304Z,1492
2017-03-02T07:06:35.257Z,1184
2017-03-02T07:07:46.039Z,1184
2017-03-02T07:08:56.381Z,1124
2017-03-02T07:10:06.997Z,1172
2017-03-02T07:11:17.343Z,1180
2017-03-02T07:12:27.690Z,1376
2017-03-02T07:13:38.091Z,1216
2017-03-02T07:14:48.850Z,1560
2017-03-02T07:15:59.868Z,1268
2017-03-02T07:17:09.848Z,1112
2017-03-02T07:18:20.216Z,1128
2017-03-02T07:19:30.985Z,1316
2017-03-02T07:20:41.433Z,1344
2017-03-02T07:21:52.488Z,1564
2017-03-02T07:23:02.866Z,1848
2017-03-02T07:24:13.221Z,2028
2017-03-02T07:25:23.186Z,2028
2017-03-02T07:26:33.534Z,2280
2017-03-02T07:27:44.610Z,2348
2017-03-02T07:28:55.017Z,2228
2017-03-02T07:30:04.988Z,2112
2017-03-02T07:31:15.314Z,1756
2017-03-02T07:32:25.267Z,1716
2017-03-02T07:33:35.918Z,1784
2017-03-02T07:34:46.337Z,1920
2017-03-02T07:35:57.141Z,1764
2017-03-02T07:37:07.693Z,1572
2017-03-02T07:38:18.797Z,1696
2017-03-02T07:39:29.441Z,1724
2017-03-02T07:40:40.212Z,1780
2017-03-02T07:41:50.561Z,1664
2017-03-02T07:43:01.303Z,1744
2017-03-02T07:44:11.692Z,1848
2017-03-02T07:45:22.338Z,1756
2017-03-02T07:46:33.095Z,1624
2017-03-02T07:47:43.481Z,1244
2017-03-02T07:48:53.878Z,1088
2017-03-02T07:50:04.779Z,924
2017-03-02T07:51:15.460Z,876
2017-03-02T07:52:25.432Z,804
2017-03-02T07:53:35.824Z,972
2017-03-02T07:54:46.222Z,988
2017-03-02T07:55:56.996Z,1148
2017-03-02T07:57:07.511Z,1516
2017-03-02T07:58:18.301Z,1216
2017-03-02T07:59:29.066Z,1432
2017-03-02T08:00:39.453Z,1268
2017-03-02T08:01:49.821Z,1112
2017-03-02T08:03:00.870Z,1196
2017-03-02T08:04:11.614Z,1196
2017-03-02T08:05:21.577Z,1048
2017-03-02T08:06:32.349Z,864
2017-03-02T08:07:43.089Z,580
2017-03-02T08:08:53.708Z,288
2017-03-02T08:10:04.067Z,268
2017-03-02T08:11:14.001Z,260
2017-03-02T08:12:23.985Z,288
2017-03-02T08:13:34.734Z,372
2017-03-02T08:14:45.343Z,444
2017-03-02T08:15:56.091Z,292
2017-03-02T08:17:06.449Z,168
2017-03-02T08:18:16.811Z,336
2017-03-02T08:19:27.610Z,280
2017-03-02T08:20:38.276Z,436
2017-03-02T08:21:49.047Z,532
2017-03-02T08:22:59.767Z,384
2017-03-02T08:24:10.141Z,760
2017-03-02T08:25:20.493Z,652
2017-03-02T08:26:30.887Z,800
2017-03-02T08:27:40.490Z,980
2017-03-02T08:28:51.254Z,696
2017-03-02T08:30:01.229Z,796
2017-03-02T08:31:11.844Z,816
2017-03-02T08:32:22.254Z,720
2017-03-02T08:33:33.000Z,792
2017-03-02T08:34:43.386Z,856
2017-03-02T08:35:54.171Z,924
2017-03-02T08:37:05.204Z,844
2017-03-02T08:38:16.001Z,632
2017-03-02T08:39:25.953Z,692
2017-03-02T08:40:35.899Z,524
2017-03-02T08:41:46.661Z,460
2017-03-02T08:42:57.312Z,480
2017-03-02T08:44:07.661Z,476
2017-03-02T08:45:18.036Z,416
2017-03-02T08:46:27.748Z,480
2017-03-02T08:47:38.696Z,468
2017-03-02T08:48:48.951Z,512
2017-03-02T08:49:59.326Z,612
2017-03-02T08:51:08.893Z,840
2017-03-02T08:52:19.643Z,1068
2017-03-02T08:53:30.417Z,1088
2017-03-02T08:54:41.015Z,1128
2017-03-02T08:55:51.409Z,1260
2017-03-02T08:57:02.168Z,1264
2017-03-02T08:58:11.739Z,1332
2017-03-02T08:59:21.313Z,1444
2017-03-02T09:00:32.298Z,1452
2017-03-02T09:01:42.311Z,1532
2017-03-02T09:02:53.098Z,1220
2017-03-02T09:04:03.102Z,1528
2017-03-02T09:05:13.452Z,1880
2017-03-02T09:06:24.067Z,1548
2017-03-02T09:07:34.824Z,1648
2017-03-02T09:08:45.573Z,2388
2017-03-02T09:09:55.572Z,3376
2017-03-02T09:11:05.967Z,2928
2017-03-02T09:12:17.003Z,2064
2017-03-02T09:13:26.568Z,1872
2017-03-02T09:14:36.933Z,2424
2017-03-02T09:15:47.292Z,2940
2017-03-02T09:16:57.653Z,3384
2017-03-02T09:18:08.303Z,4008
2017-03-02T09:19:17.885Z,3880
2017-03-02T09:20:28.657Z,3700
2017-03-02T09:21:38.999Z,3428
2017-03-02T09:22:49.744Z,3476
2017-03-02T09:24:00.353Z,4072
2017-03-02T09:25:11.118Z,3292
2017-03-02T09:26:21.503Z,3020
2017-03-02T09:27:31.899Z,2904
2017-03-02T09:28:42.259Z,2996
2017-03-02T09:29:52.891Z,3052
2017-03-02T09:31:02.850Z,2756
2017-03-02T09:32:12.808Z,2628
2017-03-02T09:33:23.180Z,2480
2017-03-02T09:34:33.541Z,2656
2017-03-02T09:35:44.142Z,2564
2017-03-02T09:36:54.566Z,2576
2017-03-02T09:38:05.552Z,2760
2017-03-02T09:39:14.763Z,3072
2017-03-02T09:40:25.198Z,2888
2017-03-02T09:41:36.223Z,2484
2017-03-02T09:42:46.209Z,2164
2017-03-02T09:43:56.211Z,2252
2017-03-02T09:45:07.026Z,1364
2017-03-02T09:46:17.428Z,1628
2017-03-02T09:47:28.510Z,1560
2017-03-02T09:48:39.256Z,1396
2017-03-02T09:49:49.269Z,1156
2017-03-02T09:51:00.032Z,788
2017-03-02T09:52:10.410Z,824
2017-03-02T09:53:21.518Z,840
2017-03-02T09:54:31.899Z,792
2017-03-02T09:55:42.645Z,1056
2017-03-02T09:56:52.999Z,1320
2017-03-02T09:58:03.767Z,1648
2017-03-02T09:59:14.378Z,1416
2017-03-02T10:00:24.765Z,1964
2017-03-02T10:01:35.116Z,2200
2017-03-02T10:02:45.499Z,2928
2017-03-02T10:03:55.074Z,2716
2017-03-02T10:05:06.174Z,1980
2017-03-02T10:06:16.930Z,2376
2017-03-02T10:07:27.694Z,2840
2017-03-02T10:08:38.062Z,2928
2017-03-02T10:09:47.646Z,3784
2017-03-02T10:10:58.243Z,3116
2017-03-02T10:12:08.994Z,2996
2017-03-02T10:13:19.368Z,2228
2017-03-02T10:14:29.724Z,2212
2017-03-02T10:15:40.095Z,2704
2017-03-02T10:16:51.115Z,2692
2017-03-02T10:18:01.883Z,3060
2017-03-02T10:19:12.647Z,3480
2017-03-02T10:20:22.594Z,3720
2017-03-02T10:21:32.977Z,3592
2017-03-02T10:22:43.993Z,3104
2017-03-02T10:23:54.375Z,3884
2017-03-02T10:25:04.361Z,3696
2017-03-02T10:26:14.338Z,3916
2017-03-02T10:27:23.926Z,3840
2017-03-02T10:28:34.937Z,3848
2017-03-02T10:29:45.714Z,4128
2017-03-02T10:30:55.700Z,3864
2017-03-02T10:32:05.648Z,3824
2017-03-02T10:33:14.883Z,4208
2017-03-02T10:34:25.109Z,3892
2017-03-02T10:35:35.877Z,3840
2017-03-02T10:36:46.617Z,4220
2017-03-02T10:37:56.586Z,4728
2017-03-02T10:39:07.350Z,4208
2017-03-02T10:40:17.976Z,5152
2017-03-02T10:41:28.310Z,5708
2017-03-02T10:42:38.671Z,4016
2017-03-02T10:43:49.414Z,3696
2017-03-02T10:44:59.774Z,3412
2017-03-02T10:46:10.867Z,3632
2017-03-02T10:47:21.226Z,2960
2017-03-02T10:48:31.180Z,3136
2017-03-02T10:49:41.980Z,2884
2017-03-02T10:50:52.729Z,3244
2017-03-02T10:52:03.350Z,2864
2017-03-02T10:53:13.695Z,3408
2017-03-02T10:54:24.071Z,2864
2017-03-02T10:55:35.055Z,2724
2017-03-02T10:56:44.998Z,3536
2017-03-02T10:57:55.297Z,2948
2017-03-02T10:59:05.673Z,2012
2017-03-02T11:00:16.443Z,1936
2017-03-02T11:01:26.803Z,1692
2017-03-02T11:02:37.170Z,1672
2017-03-02T11:03:47.805Z,1316
2017-03-02T11:04:57.775Z,1556
2017-03-02T11:06:08.102Z,1696
2017-03-02T11:07:18.486Z,1656
2017-03-02T11:08:28.448Z,1748
2017-03-02T11:09:39.059Z,1588
2017-03-02T11:10:48.655Z,1660
2017-03-02T11:11:59.032Z,1720
2017-03-02T11:13:09.788Z,1860
2017-03-02T11:14:19.780Z,1652
2017-03-02T11:15:30.404Z,1056
2017-03-02T11:16:41.155Z,1168
2017-03-02T11:17:51.556Z,1668
2017-03-02T11:19:01.906Z,968
2017-03-02T11:20:12.272Z,1456
2017-03-02T11:21:22.483Z,1252
2017-03-02T11:22:32.445Z,984
2017-03-02T11:23:42.384Z,1284
2017-03-02T11:24:53.123Z,1332
2017-03-02T11:26:03.871Z,1652
2017-03-02T11:27:14.141Z,2312
2017-03-02T11:28:24.879Z,2792
2017-03-02T11:29:34.473Z,1980
2017-03-02T11:30:45.273Z,1796
2017-03-02T11:31:56.032Z,1956
2017-03-02T11:33:06.289Z,2124
2017-03-02T11:34:16.623Z,1980
2017-03-02T11:35:26.573Z,1696
2017-03-02T11:36:36.547Z,2044
2017-03-02T11:37:46.510Z,2172
2017-03-02T11:38:56.714Z,1876
2017-03-02T11:40:07.074Z,1660
2017-03-02T11:41:17.416Z,2268
2017-03-02T11:42:27.395Z,2572
2017-03-02T11:43:38.145Z,2968
2017-03-02T11:44:48.752Z,2216
2017-03-02T11:45:59.101Z,2928
2017-03-02T11:47:09.485Z,2792
2017-03-02T11:48:19.842Z,2656
2017-03-02T11:49:30.624Z,3028
2017-03-02T11:50:41.270Z,2856
2017-03-02T11:51:51.994Z,2684
2017-03-02T11:53:02.752Z,2908
2017-03-02T11:54:12.720Z,3140
2017-03-02T11:55:23.083Z,3072
2017-03-02T11:56:34.063Z,3072
2017-03-02T11:57:43.608Z,3112
2017-03-02T11:58:53.973Z,3012
2017-03-02T12:00:04.320Z,3088
2017-03-02T12:01:14.284Z,3128
2017-03-02T12:02:24.934Z,3180
2017-03-02T12:03:35.284Z,3144
2017-03-02T12:04:45.284Z,3192
2017-03-02T12:05:55.645Z,2884
2017-03-02T12:07:06.433Z,2952
2017-03-02T12:08:17.041Z,3036
2017-03-02T12:09:27.400Z,3048
2017-03-02T12:10:37.340Z,3064
2017-03-02T12:11:47.284Z,3156
2017-03-02T12:12:57.236Z,3236
2017-03-02T12:14:07.092Z,3216
2017-03-02T12:15:17.095Z,3148
2017-03-02T12:16:27.453Z,3252
2017-03-02T12:17:38.195Z,3472
2017-03-02T12:18:48.155Z,3496
2017-03-02T12:19:59.191Z,3564
2017-03-02T12:21:09.581Z,3104
2017-03-02T12:22:20.335Z,2684
2017-03-02T12:23:31.089Z,1812
2017-03-02T12:24:41.059Z,1492
2017-03-02T12:25:51.435Z,1768
2017-03-02T12:27:00.980Z,1776
2017-03-02T12:28:11.320Z,1600
2017-03-02T12:29:21.680Z,1964
2017-03-02T12:30:31.911Z,1404
2017-03-02T12:31:41.867Z,1232
2017-03-02T12:32:52.611Z,1096
2017-03-02T12:34:02.983Z,1000
2017-03-02T12:35:13.722Z,1216
2017-03-02T12:36:23.917Z,1004
2017-03-02T12:37:34.666Z,964
2017-03-02T12:38:45.444Z,1008
2017-03-02T12:39:56.186Z,1020
2017-03-02T12:41:06.561Z,924
2017-03-02T12:42:17.306Z,1044
2017-03-02T12:43:28.037Z,980
2017-03-02T12:44:38.374Z,1168
2017-03-02T12:45:49.101Z,1460
2017-03-02T12:46:59.716Z,2668
2017-03-02T12:48:10.483Z,2012
2017-03-02T12:49:21.249Z,2624
2017-03-02T12:50:31.626Z,2624
2017-03-02T12:51:42.402Z,2148
2017-03-02T12:52:52.992Z,1996
2017-03-02T12:54:03.724Z,1532
2017-03-02T12:55:14.077Z,1604
2017-03-02T12:56:24.419Z,1496
2017-03-02T12:57:34.397Z,1296
2017-03-02T12:58:45.005Z,1508
2017-03-02T12:59:55.765Z,928
2017-03-02T13:01:06.516Z,644
2017-03-02T13:02:16.868Z,828
2017-03-02T13:03:27.483Z,744
2017-03-02T13:04:38.123Z,796
2017-03-02T13:05:48.892Z,976
2017-03-02T13:06:59.636Z,952
2017-03-02T13:08:09.996Z,960
2017-03-02T13:09:20.762Z,1000
2017-03-02T13:10:31.802Z,960
2017-03-02T13:11:42.562Z,968
2017-03-02T13:12:52.929Z,892
2017-03-02T13:14:03.289Z,1060
2017-03-02T13:15:14.057Z,1056
2017-03-02T13:16:24.324Z,936
2017-03-02T13:17:34.660Z,772
2017-03-02T13:18:45.033Z,732
2017-03-02T13:19:55.367Z,720
2017-03-02T13:21:06.142Z,868
2017-03-02T13:22:16.775Z,752
2017-03-02T13:23:26.745Z,724
2017-03-02T13:24:36.735Z,748
2017-03-02T13:25:47.482Z,732
2017-03-02T13:26:58.239Z,732
2017-03-02T13:28:08.438Z,652
2017-03-02T13:29:18.811Z,712
2017-03-02T13:30:29.146Z,788
2017-03-02T13:31:39.483Z,544
2017-03-02T13:32:49.446Z,600
2017-03-02T13:34:00.429Z,504
2017-03-02T13:35:10.827Z,560
2017-03-02T13:36:21.774Z,500
2017-03-02T13:37:32.111Z,716
2017-03-02T13:38:42.082Z,688
2017-03-02T13:39:51.892Z,920
2017-03-02T13:41:02.263Z,616
2017-03-02T13:42:12.229Z,620
2017-03-02T13:43:22.226Z,608
2017-03-02T13:44:32.589Z,740
2017-03-02T13:45:42.459Z,540
2017-03-02T13:46:52.420Z,524
2017-03-02T13:48:03.237Z,416
2017-03-02T13:49:14.337Z,808
2017-03-02T13:50:24.690Z,724
2017-03-02T13:51:35.306Z,1080
2017-03-02T13:52:45.676Z,716
2017-03-02T13:53:56.063Z,916
2017-03-02T13:55:06.449Z,908
2017-03-02T13:56:16.414Z,932
2017-03-02T13:57:26.315Z,1020
2017-03-02T13:58:37.112Z,832
2017-03-02T13:59:47.496Z,620
2017-03-02T14:00:57.848Z,624
2017-03-02T14:02:07.810Z,612
2017-03-02T14:03:18.520Z,412
2017-03-02T14:04:29.301Z,400
2017-03-02T14:05:40.088Z,464
2017-03-02T14:06:50.476Z,676
2017-03-02T14:08:00.834Z,584
2017-03-02T14:09:11.058Z,676
2017-03-02T14:10:21.421Z,1008
2017-03-02T14:11:32.163Z,1088
2017-03-02T14:12:42.116Z,836
2017-03-02T14:13:52.894Z,1164
2017-03-02T14:15:03.491Z,1312
2017-03-02T14:16:12.653Z,1192
2017-03-02T14:17:22.993Z,1044
2017-03-02T14:18:33.323Z,728
2017-03-02T14:19:43.263Z,868
2017-03-02T14:20:54.274Z,1020
2017-03-02T14:22:05.050Z,692
2017-03-02T14:23:15.421Z,884
2017-03-02T14:24:25.366Z,960
2017-03-02T14:25:35.760Z,1020
2017-03-02T14:26:46.731Z,856
2017-03-02T14:27:56.278Z,1044
2017-03-02T14:29:07.020Z,968
2017-03-02T14:30:17.359Z,1028
2017-03-02T14:31:28.121Z,956
2017-03-02T14:32:39.180Z,852
2017-03-02T14:33:49.529Z,1144
2017-03-02T14:34:59.452Z,936
2017-03-02T14:36:09.436Z,1112
2017-03-02T14:37:19.391Z,844
2017-03-02T14:38:30.393Z,784
2017-03-02T14:39:40.329Z,696
2017-03-02T14:40:50.670Z,728
2017-03-02T14:42:01.438Z,616
2017-03-02T14:43:11.796Z,604
2017-03-02T14:44:22.543Z,596
2017-03-02T14:45:32.919Z,652
2017-03-02T14:46:43.654Z,704
2017-03-02T14:47:53.986Z,676
2017-03-02T14:49:04.573Z,564
2017-03-02T14:50:14.523Z,612
2017-03-02T14:51:24.870Z,564
2017-03-02T14:52:35.208Z,460
2017-03-02T14:53:45.970Z,480
2017-03-02T14:55:01.323Z,324
2017-03-02T14:56:12.071Z,596
2017-03-02T14:57:22.408Z,584
2017-03-02T14:58:32.744Z,612
2017-03-02T14:59:42.686Z,684
2017-03-02T15:00:53.290Z,752
2017-03-02T15:02:02.846Z,648
2017-03-02T15:03:12.783Z,520
2017-03-02T15:04:22.710Z,560
2017-03-02T15:05:31.848Z,600
2017-03-02T15:06:42.041Z,716
2017-03-02T15:07:51.973Z,596
2017-03-02T15:09:01.909Z,572
2017-03-02T15:10:12.633Z,504
2017-03-02T15:11:23.004Z,616
2017-03-02T15:12:37.071Z,624
2017-03-02T15:13:46.633Z,676
2017-03-02T15:14:56.598Z,656
2017-03-02T15:16:06.563Z,628
2017-03-02T15:17:17.298Z,508
2017-03-02T15:18:28.267Z,572
2017-03-02T15:19:38.212Z,820
2017-03-02T15:20:47.740Z,848
2017-03-02T15:21:58.099Z,804
2017-03-02T15:23:08.041Z,892
2017-03-02T15:24:17.494Z,920
2017-03-02T15:25:27.434Z,900
2017-03-02T15:26:38.146Z,872
2017-03-02T15:27:48.485Z,756
2017-03-02T15:28:59.205Z,700
2017-03-02T15:30:09.388Z,712
2017-03-02T15:31:19.310Z,720
2017-03-02T15:32:28.442Z,676
2017-03-02T15:33:38.773Z,684
2017-03-02T15:34:49.129Z,636
2017-03-02T15:35:59.748Z,648
2017-03-02T15:37:10.472Z,664
2017-03-02T15:38:20.826Z,680
2017-03-02T15:39:31.568Z,668
2017-03-02T15:40:42.315Z,624
2017-03-02T15:41:52.893Z,580
2017-03-02T15:43:03.247Z,556
2017-03-02T15:44:13.199Z,544
2017-03-02T15:45:23.138Z,520
2017-03-02T15:46:33.878Z,508
2017-03-02T15:47:44.838Z,524
2017-03-02T15:48:55.155Z,492
2017-03-02T15:50:04.704Z,468
2017-03-02T15:51:15.041Z,460
2017-03-02T15:52:25.807Z,452
2017-03-02T15:53:36.473Z,456
2017-03-02T15:54:46.829Z,444
2017-03-02T15:55:56.782Z,460
2017-03-02T15:57:07.526Z,432
2017-03-02T15:58:17.478Z,424
2017-03-02T15:59:28.136Z,432
2017-03-02T16:00:38.477Z,424
2017-03-02T16:01:48.837Z,372
2017-03-02T16:02:59.174Z,376
2017-03-02T16:04:09.537Z,296
2017-03-02T16:05:18.989Z,296
2017-03-02T16:06:29.716Z,264
2017-03-02T16:07:39.267Z,280
2017-03-02T16:08:49.601Z,272
2017-03-02T16:09:59.936Z,244
2017-03-02T16:11:10.140Z,216
2017-03-02T16:12:19.698Z,204
2017-03-02T16:13:30.448Z,168
2017-03-02T16:14:40.363Z,160
2017-03-02T16:15:49.927Z,156
2017-03-02T16:17:00.115Z,140
2017-03-02T16:18:10.458Z,108
2017-03-02T16:19:20.787Z,100
2017-03-02T16:20:31.491Z,104
2017-03-02T16:21:41.829Z,48
2017-03-02T16:22:52.448Z,48